Terminal Aerodrome Forecast
Issued by NWS

Home | Current Version | Previous Version | Text Only | Print | Product List | Glossary On
Versions: 1 2 3 4 5 6 7 8 9 10 11 12 13 14 15
000
FTUS43 KMPX 052334
TAFRNH
TAF
KRNH 052334Z 0600/0624 20008KT P6SM SKC
     FM061200 22009KT P6SM SCT120
     FM061600 26010KT P6SM FEW060 SCT120=

USA.gov is the U.S. government's official web portal to all federal, state and local government web resources and services.